Skip Navigation LinksHome page > Weather > Current weather Skip Navigation Links

Current Weather

Seattle-Tacoma Intl, Seattle

For information only: do not use for flight planning or navigation.
Latest weather
Observation time Saturday, September 19, 2020 11:53 PM PDT
Local time Sunday, September 20, 2020 12:59 AM PDT
Flight conditions Marginal Visual Meteorological Conditions
Winds
Wind direction East (100°)
Wind speed 3 mph
Visibility 7 mi.
Present weather light rain
Sky condition
Ceiling 1,100 ft. broken clouds
Cloud layer scattered clouds 500 ft.
Cloud layer broken clouds 1,100 ft.
Cloud layer overcast 1,700 ft.
Temperature 61°F
Dewpoint 58°F
Altimeter 30.11 in.Hg
Precipitation
Rain began 11:40 PM
Precipitation last hour trace
Derived measurements
Relative humidity 90%
Density altitude 570 ft.
Sea-level pressure 30.12 in.Hg
Remarks
Automated weather observing station with precipitation discriminator.
METAR KSEA 200653Z 10003KT 7SM -RA SCT005 BKN011 OVC017 16/14 A3011 RMK AO2 RAB40 SLP201 P0000 T01610144

Settings

Location code

InnerDrive.Weather 4.0.6770.0 Release CLR 4.0.30319.42000
Copyright ©2018 Inner Drive Technology. All rights reserved. Portions Copyright ©1986-2018 David Braverman.

Find weather

Site navigation


Skip Navigation Links

Place info

Page info

PayPal - The safer, easier way to pay online!

Return home.

Copyright ©2020 Inner Drive Technology. Purveyors of fine, hand-crafted computer software. Page printed 2020-09-20T07:59:30 UTC.